Detailed Flight Report of Nuri Burak ERKAL ;
Number CXD079 
Departure Aerodrome LTCI 
Arrival Aerodrome LTAC

Map generated by the Great Circle Mapper - copyright © Karl L. Swartz.

Pilot In Command CXD079 : Nuri Burak Erkal
Aircraft B773 / TC-NZL
Date Of Flight 2020-06-25
Departure Time 09:47 UTC
Arrival Time 11:18 UTC
Block Time 01:31
Distance 498 Nm.
Used Fuel 21,042 Lbs.
   
Detailed Flight Log [2020/06/25 09:32:00]
Flight IATA:C001
Pilot Number:079
Company ICAO:CXD
Aircraft Type:B773
Aircraft Registration:TC-NZL
Departing Airport: LTCI
Destination Airport: LTAC
Alternate Airport:LTFJ
Online: VATSIM
Route:BEYAZ UG81 BAYIR UT888 SIV UA4 GURBU
Flight Level:FL380
No pause
09:32 Zero fuel Weight: 480202 Lbs, Fuel Weight: 38004 Lbs
09:32 VATSIM:LTCI 241850Z 00000KT CAVOK 19/05 Q1018 NOSIG
09:32 VATSIM:LTAC 241850Z 01003KT CAVOK 18/12 Q1020 NOSIG
09:33 Parking Brakes off
09:42 VR= 158 Knots
09:43 V2= 164 Knots
09:43 Take-off
09:43 Take off Weight: 516989 Lbs
09:43 Wind: 000º @ 000 Knots Heading: 217º
09:43 POS N38º 27´ 47´´ E043º 19´ 38´´
09:43 N11 98 N12 98
09:43 Flaps:15º at 166 Knots
09:43 Gear Up: 169 Knots
09:44 Flaps:5º at 175 Knots
09:44 Flaps:1º at 188 Knots
09:44 Flaps:Up at 207 Knots
09:58 Wind:247º@075 Knots Heading: 282º Ground Speed: 430 Knot
s Altitude 36683 ft
09:58 TOC
09:58 Fuel Weight: 28803 Lb
10:13 Wind:246º@086 Knots Heading: 282º Ground Speed: 421 Knots Altitude 38044 ft
10:28 Wind:245º@093 Knots Heading: 280º Ground Speed: 414 Knots Altitude 38251 ft
10:35 TOD
10:35 Fuel Weight: 20227 Lb
10:43 Wind:256º@069 Knots Heading: 275º Ground Speed: 361 Knots Altitude 28612 ft
10:58 Wind:307º@010 Knots Heading: 280º Ground Speed: 259 Knots Altitude 6929 ft
10:59 Flaps:1º at 214 Knots
10:59 Gear Down: 215 Knots
10:59 Flaps:5º at 215 Knots
11:00 Flaps:15º at 208 Knots
11:01 Flaps:30º at 189 Knots
11:01 Flaps:35º at 180 Knots
11:01 Flaps:Full at 176 Knots
11:02 TouchDown:Rate -43 ft/min Speed: 132 Knots
11:02 VATSIM:LTAC 242050Z 00000KT CAVOK 17/11 Q1020 NOSIG
11:02 Land
11:02 Wind:076º@001 Knots
11:02 Heading: 215º
11:02 Flight Duration: 01:19
11:02 Landing Weight: 497317 Lbs
11:02 POS N40º 0
7´ 50´´ E032º 59´ 56´´
11:04 Parking brakes on
11:04 Block to Block Duration: 01:31
11:04 Final Fuel: 16962 Lbls
11:04 Spent Fuel: 21042 Lbls
11:04 Flight Length: 498 NM
11:04 TOD Land Length: 143 NM

Text Link of Flight Log http://www.candanair.net/acars/logs/CXD07920200625093200.txt
   

[ Back ]